Time;durP1;ratioP1;P1;durP2;ratioP2;P2;SDS_P1;SDS_P2;PMS_P1;PMS_P2;Temp;Humidity;BMP_temperature;BMP_pressure;BME280_temperature;BME280_humidity;BME280_pressure;Samples;Min_cycle;Max_cycle;Signal;HPM_P1;HPM_P2
2023/07/12 00:01:16;;;;;;;5.95;1.70;;;;;;;24.94;51.17;100795.75;5147506;27;20496;-61
2023/07/12 00:03:44;;;;;;;2.67;1.50;;;;;;;24.92;50.80;100785.06;5148727;27;20047;-61
2023/07/12 00:06:13;;;;;;;3.55;1.10;;;;;;;24.88;51.04;100792.34;5148405;27;20046;-61
2023/07/12 00:08:41;;;;;;;2.50;1.40;;;;;;;24.85;51.07;100794.91;5147753;27;20051;-61
2023/07/12 00:11:15;;;;;;;2.63;1.10;;;;;;;24.84;51.28;100794.09;5143797;27;20055;-61
2023/07/12 00:13:43;;;;;;;3.58;1.90;;;;;;;24.82;51.10;100790.06;5147146;27;20046;-60
2023/07/12 00:16:22;;;;;;;4.13;1.67;;;;;;;24.80;51.51;100781.31;5147958;27;20484;-61
2023/07/12 00:18:50;;;;;;;3.20;1.65;;;;;;;24.77;51.36;100790.19;5143698;27;20043;-61
2023/07/12 00:21:22;;;;;;;3.70;1.77;;;;;;;24.76;51.33;100803.13;5148269;27;20047;-60
2023/07/12 00:23:52;;;;;;;3.53;1.85;;;;;;;24.75;50.91;100820.75;5136441;27;20050;-60
2023/07/12 00:26:22;;;;;;;4.38;1.85;;;;;;;24.73;51.59;100828.50;5140276;27;20516;-60
2023/07/12 00:28:50;;;;;;;3.90;1.85;;;;;;;24.73;51.80;100841.44;5146715;27;20061;-61
2023/07/12 00:31:19;;;;;;;6.03;1.83;;;;;;;24.71;51.48;100843.69;5145303;27;20051;-61
2023/07/12 00:33:47;;;;;;;3.50;1.40;;;;;;;24.69;51.26;100845.94;5146968;27;20518;-61
2023/07/12 00:36:17;;;;;;;4.00;1.42;;;;;;;24.65;52.01;100852.06;5148443;27;20047;-61
2023/07/12 00:38:45;;;;;;;3.20;1.58;;;;;;;24.63;51.32;100853.53;5143750;27;20163;-61
2023/07/12 00:41:21;;;;;;;6.00;2.05;;;;;;;24.61;51.78;100853.84;5135427;27;20055;-61
2023/07/12 00:43:53;;;;;;;;;;;;;;;24.60;51.55;100854.16;5147960;27;20058;-60
2023/07/12 00:46:30;;;;;;;3.03;1.50;;;;;;;24.57;51.82;100855.59;5147717;27;19919;-60
2023/07/12 00:48:58;;;;;;;3.80;1.50;;;;;;;24.56;52.07;100864.16;5148477;27;20047;-59
2023/07/12 00:51:37;;;;;;;2.78;1.50;;;;;;;24.53;52.17;100862.03;5146858;27;20043;-59
2023/07/12 00:54:11;;;;;;;4.85;1.70;;;;;;;24.50;51.81;100862.66;5147522;27;20046;-60
2023/07/12 00:56:39;;;;;;;3.97;1.70;;;;;;;24.48;51.82;100867.66;5135851;27;20047;-60
2023/07/12 00:59:10;;;;;;;5.88;2.28;;;;;;;24.46;51.79;100870.72;5144477;27;20101;-61
2023/07/12 01:01:40;;;;;;;2.88;1.60;;;;;;;24.44;52.01;100883.97;5144774;27;20115;-60
2023/07/12 01:04:10;;;;;;;3.65;1.75;;;;;;;24.42;52.28;100891.72;5144435;27;20542;-61
2023/07/12 01:06:38;;;;;;;3.08;1.95;;;;;;;24.41;51.72;100875.53;5147607;27;20092;-61
2023/07/12 01:09:11;;;;;;;3.40;1.58;;;;;;;24.38;51.80;100879.72;5138006;27;20127;-61
2023/07/12 01:11:41;;;;;;;3.15;2.10;;;;;;;24.37;51.68;100874.53;5147076;27;20147;-61
2023/07/12 01:14:11;;;;;;;4.18;1.65;;;;;;;24.34;52.08;100862.25;5146668;27;20054;-61
2023/07/12 01:16:43;;;;;;;4.60;1.88;;;;;;;24.30;51.94;100864.81;5147092;27;20061;-61
2023/07/12 01:19:11;;;;;;;4.70;1.90;;;;;;;24.27;51.68;100868.19;5144057;27;20047;-61
2023/07/12 01:21:45;;;;;;;3.83;1.98;;;;;;;24.26;51.57;100882.25;5146807;27;20096;-61
2023/07/12 01:24:13;;;;;;;4.82;1.85;;;;;;;24.22;51.50;100853.75;5147504;27;20113;-61
2023/07/12 01:26:43;;;;;;;4.18;1.65;;;;;;;24.20;51.25;100850.53;5146179;27;20043;-60
2023/07/12 01:29:12;;;;;;;3.63;1.60;;;;;;;24.16;50.83;100839.34;5143602;27;20132;-60
2023/07/12 01:31:40;;;;;;;6.20;2.20;;;;;;;24.12;50.82;100849.34;5155704;27;20072;-60
2023/07/12 01:34:09;;;;;;;5.22;2.00;;;;;;;24.11;51.10;100855.94;5148521;27;20138;-60
2023/07/12 01:36:38;;;;;;;5.10;1.65;;;;;;;24.09;51.08;100865.63;5137975;27;20069;-60
2023/07/12 01:39:08;;;;;;;3.08;1.73;;;;;;;24.07;50.67;100863.19;5149883;27;20104;-60
2023/07/12 01:41:35;;;;;;;3.70;1.90;;;;;;;24.05;51.02;100879.16;5154397;27;20119;-60
2023/07/12 01:44:04;;;;;;;2.95;1.95;;;;;;;24.04;50.82;100882.22;5144117;27;20101;-61
2023/07/12 01:46:32;;;;;;;5.72;1.80;;;;;;;24.02;51.09;100877.84;5146003;27;20043;-61
2023/07/12 01:49:00;;;;;;;2.85;1.73;;;;;;;24.01;51.35;100881.72;5134282;27;20042;-61
2023/07/12 01:51:30;;;;;;;6.43;2.60;;;;;;;23.98;51.25;100876.03;5145299;27;20112;-61
2023/07/12 01:53:57;;;;;;;2.70;1.80;;;;;;;23.97;51.35;100866.19;5146555;27;20107;-61
2023/07/12 01:56:27;;;;;;;3.35;1.80;;;;;;;23.94;50.94;100869.56;5142506;27;20047;-61
2023/07/12 01:58:54;;;;;;;5.72;1.70;;;;;;;23.92;51.41;100867.13;5144529;27;20046;-61
2023/07/12 02:01:22;;;;;;;4.93;1.60;;;;;;;23.90;50.93;100849.34;5147608;27;20054;-60
2023/07/12 02:03:50;;;;;;;4.90;1.83;;;;;;;23.89;51.23;100825.75;5141322;27;20499;-61
2023/07/12 02:06:18;;;;;;;3.15;1.52;;;;;;;23.86;51.20;100829.94;5144563;27;20091;-60
2023/07/12 02:08:46;;;;;;;3.88;2.10;;;;;;;23.85;51.02;100832.97;5147832;27;20078;-60
2023/07/12 02:11:14;;;;;;;4.28;2.08;;;;;;;23.83;51.34;100835.22;5146750;27;20058;-60
2023/07/12 02:13:43;;;;;;;4.20;1.63;;;;;;;23.79;50.97;100824.06;5139454;27;20043;-60
2023/07/12 02:16:11;;;;;;;3.67;1.70;;;;;;;23.78;51.25;100825.19;5147170;27;20051;-60
2023/07/12 02:18:39;;;;;;;5.20;2.05;;;;;;;23.78;51.01;100821.63;5146078;27;20047;-61
2023/07/12 02:21:07;;;;;;;4.95;1.65;;;;;;;23.76;50.80;100826.59;5145769;27;20134;-61
2023/07/12 02:23:35;;;;;;;3.42;1.65;;;;;;;23.75;51.10;100852.44;5143692;27;20077;-61
2023/07/12 02:26:02;;;;;;;4.50;1.83;;;;;;;23.73;51.58;100865.66;5143048;27;20443;-61
2023/07/12 02:28:30;;;;;;;2.70;1.38;;;;;;;23.72;51.43;100869.53;5145254;27;20088;-62
2023/07/12 02:31:19;;;;;;;5.07;2.42;;;;;;;23.69;51.47;100874.50;5145189;27;20556;-61
2023/07/12 02:33:47;;;;;;;5.95;1.60;;;;;;;23.68;51.60;100856.41;5141983;27;20082;-61
2023/07/12 02:36:15;;;;;;;3.72;1.65;;;;;;;23.66;51.89;100852.34;5143129;27;20049;-61
2023/07/12 02:38:43;;;;;;;3.63;1.52;;;;;;;23.64;51.66;100858.16;5147569;27;20111;-61
2023/07/12 02:41:11;;;;;;;4.15;1.90;;;;;;;23.62;51.78;100865.06;5135856;27;20039;-61
2023/07/12 02:43:39;;;;;;;4.40;1.67;;;;;;;23.62;51.44;100867.81;5146093;27;20049;-61
2023/07/12 02:46:07;;;;;;;3.60;1.77;;;;;;;23.61;51.63;100852.47;5139502;27;20115;-61
2023/07/12 02:48:36;;;;;;;4.05;1.75;;;;;;;23.58;52.03;100853.91;5145706;27;20065;-61
2023/07/12 02:51:04;;;;;;;5.45;1.92;;;;;;;23.57;52.18;100838.56;5143605;27;20047;-61
2023/07/12 02:53:34;;;;;;;4.65;1.70;;;;;;;23.55;52.05;100845.47;5145582;27;20055;-61
2023/07/12 02:56:06;;;;;;;3.72;1.50;;;;;;;23.53;51.57;100831.22;5144339;27;20047;-61
2023/07/12 02:58:34;;;;;;;2.88;1.67;;;;;;;23.51;51.47;100831.53;5141503;27;20055;-61
2023/07/12 03:01:02;;;;;;;3.60;1.65;;;;;;;23.51;51.60;100836.22;5144321;27;20039;-61
2023/07/12 03:03:30;;;;;;;3.08;1.58;;;;;;;23.49;51.59;100866.69;5143399;27;20068;-61
2023/07/12 03:06:04;;;;;;;4.20;1.60;;;;;;;23.47;51.64;100873.59;5142405;27;20066;-61
2023/07/12 03:08:32;;;;;;;3.13;1.55;;;;;;;23.45;51.94;100873.91;5142260;27;20043;-61
2023/07/12 03:11:00;;;;;;;3.83;1.40;;;;;;;23.45;51.95;100870.34;5146455;27;20047;-60
2023/07/12 03:13:28;;;;;;;3.95;1.75;;;;;;;23.41;52.24;100870.16;5141351;28;20043;-61
2023/07/12 03:15:55;;;;;;;6.03;1.70;;;;;;;23.40;51.85;100867.72;5141803;27;20103;-60
2023/07/12 03:18:23;;;;;;;5.30;1.80;;;;;;;23.37;51.50;100875.44;5141749;28;20107;-61
2023/07/12 03:20:51;;;;;;;4.30;1.58;;;;;;;23.36;52.16;100873.00;5144812;28;20586;-61
2023/07/12 03:23:20;;;;;;;2.75;1.30;;;;;;;23.34;52.06;100881.53;5144509;27;20043;-60
2023/07/12 03:25:48;;;;;;;5.50;2.10;;;;;;;23.30;52.47;100871.50;5144686;28;20055;-61
2023/07/12 03:28:16;;;;;;;4.25;1.70;;;;;;;23.29;52.68;100869.88;5143921;28;20051;-60
2023/07/12 03:30:44;;;;;;;3.38;1.77;;;;;;;23.26;52.38;100876.78;5140613;28;20097;-61
2023/07/12 03:33:12;;;;;;;3.78;1.48;;;;;;;23.25;52.11;100882.56;5148339;27;20130;-61
2023/07/12 03:35:39;;;;;;;3.20;1.50;;;;;;;23.22;52.54;100874.97;5156694;27;20051;-61
2023/07/12 03:38:07;;;;;;;3.30;1.70;;;;;;;23.20;52.71;100891.72;5148286;27;20039;-61
2023/07/12 03:40:36;;;;;;;3.33;1.48;;;;;;;23.19;52.95;100887.34;5141436;28;20047;-61
2023/07/12 03:43:04;;;;;;;3.85;1.67;;;;;;;23.17;52.95;100889.59;5134647;28;20073;-61
2023/07/12 03:45:32;;;;;;;3.80;1.83;;;;;;;23.14;53.02;100890.19;5141540;27;20124;-61
2023/07/12 03:48:00;;;;;;;5.53;2.47;;;;;;;23.12;52.87;100897.91;5144891;27;20069;-61
2023/07/12 03:50:27;;;;;;;2.95;1.75;;;;;;;23.08;52.82;100913.34;5145952;27;20153;-61
2023/07/12 03:52:55;;;;;;;3.08;1.63;;;;;;;23.06;52.90;100918.31;5142353;28;20043;-61
2023/07/12 03:55:23;;;;;;;2.35;1.45;;;;;;;23.04;52.97;100920.53;5142319;27;20074;-61
2023/07/12 03:57:52;;;;;;;4.15;1.77;;;;;;;23.02;52.91;100923.59;5144913;27;20394;-61
2023/07/12 04:00:20;;;;;;;2.53;1.70;;;;;;;22.99;52.79;100913.22;5136334;27;20046;-61
2023/07/12 04:02:48;;;;;;;4.47;1.63;;;;;;;22.97;52.79;100911.91;5143740;27;20043;-61
2023/07/12 04:05:16;;;;;;;2.70;1.50;;;;;;;22.96;52.98;100924.81;5145083;27;20047;-61
2023/07/12 04:07:44;;;;;;;3.05;1.52;;;;;;;22.94;53.00;100915.25;5130459;28;20044;-60
2023/07/12 04:10:12;;;;;;;3.80;1.60;;;;;;;22.93;53.00;100919.13;5138687;28;20135;-61
2023/07/12 04:12:40;;;;;;;3.95;1.65;;;;;;;22.89;52.99;100927.13;5145394;27;20043;-60
2023/07/12 04:15:10;;;;;;;6.20;1.80;;;;;;;22.87;52.89;100928.53;5145763;27;20092;-61
2023/07/12 04:17:38;;;;;;;2.65;1.52;;;;;;;22.85;52.71;100928.03;5137744;27;20070;-61
2023/07/12 04:20:07;;;;;;;5.05;1.98;;;;;;;22.82;52.65;100921.22;5148488;27;20198;-61
2023/07/12 04:22:35;;;;;;;5.22;1.52;;;;;;;22.81;52.68;100919.59;5148306;27;20081;-61
2023/07/12 04:25:03;;;;;;;3.67;1.55;;;;;;;22.80;52.83;100928.13;5146817;27;20047;-61
2023/07/12 04:27:31;;;;;;;3.75;1.88;;;;;;;22.79;52.78;100929.22;5146319;27;20123;-60
2023/07/12 04:29:58;;;;;;;5.13;1.80;;;;;;;22.78;53.10;100931.13;5145135;27;20044;-61
2023/07/12 04:32:27;;;;;;;3.38;1.77;;;;;;;22.76;52.44;100925.16;5146790;27;20415;-61
2023/07/12 04:34:55;;;;;;;3.30;1.75;;;;;;;22.75;52.78;100926.25;5148257;27;20055;-61
2023/07/12 04:37:23;;;;;;;4.00;1.50;;;;;;;22.73;52.92;100932.03;5147685;27;20509;-61
2023/07/12 04:39:51;;;;;;;4.18;1.88;;;;;;;22.73;52.70;100926.56;5144051;27;20180;-60
2023/07/12 04:42:19;;;;;;;3.17;1.58;;;;;;;22.69;52.73;100916.50;5141642;27;20132;-61
2023/07/12 04:44:50;;;;;;;2.72;1.58;;;;;;;22.71;52.85;100928.78;5146310;27;20047;-61
2023/07/12 04:47:18;;;;;;;4.43;1.45;;;;;;;22.69;52.98;100922.78;5140890;27;20072;-61
2023/07/12 04:49:48;;;;;;;3.28;1.50;;;;;;;22.69;52.75;100927.47;5144823;27;20050;-61
2023/07/12 04:52:16;;;;;;;2.67;1.20;;;;;;;22.66;52.68;100925.31;5140348;27;20051;-61
2023/07/12 04:54:45;;;;;;;3.97;1.63;;;;;;;22.65;52.50;100924.50;5146266;27;20055;-61
2023/07/12 04:57:13;;;;;;;3.97;1.92;;;;;;;22.65;52.46;100934.66;5137497;27;20049;-60
2023/07/12 04:59:41;;;;;;;4.78;1.48;;;;;;;22.61;52.72;100934.44;5147552;27;20047;-60
2023/07/12 05:02:09;;;;;;;5.05;1.70;;;;;;;22.62;52.92;100938.81;5145824;27;20047;-61
2023/07/12 05:04:36;;;;;;;4.03;1.48;;;;;;;22.60;52.75;100927.34;5146975;27;20054;-60
2023/07/12 05:07:09;;;;;;;7.53;1.88;;;;;;;22.57;52.79;100930.69;5143177;27;20112;-60
2023/07/12 05:09:37;;;;;;;4.00;1.70;;;;;;;22.57;52.58;100938.09;5144121;27;20051;-61
2023/07/12 05:12:06;;;;;;;4.35;1.73;;;;;;;22.57;52.61;100941.63;5147219;27;20051;-63
2023/07/12 05:14:34;;;;;;;4.10;1.90;;;;;;;22.56;52.34;100942.75;5147509;27;20043;-63
2023/07/12 05:17:03;;;;;;;4.07;1.65;;;;;;;22.54;53.00;100947.72;5143587;27;20396;-60
2023/07/12 05:19:31;;;;;;;7.30;1.98;;;;;;;22.54;52.54;100944.97;5142292;27;20051;-61
2023/07/12 05:21:59;;;;;;;5.43;1.88;;;;;;;22.56;52.59;100952.88;5142699;27;20051;-59
2023/07/12 05:24:28;;;;;;;3.92;1.50;;;;;;;22.54;52.33;100964.16;5142777;27;20090;-60
2023/07/12 05:26:58;;;;;;;5.05;1.80;;;;;;;22.54;52.56;100957.84;5150505;27;20502;-61
2023/07/12 05:29:26;;;;;;;3.70;1.70;;;;;;;22.54;52.81;100968.81;5146736;27;20468;-61
2023/07/12 05:31:54;;;;;;;3.80;1.33;;;;;;;22.51;52.54;100967.50;5140872;27;20048;-58
2023/07/12 05:34:22;;;;;;;5.03;1.92;;;;;;;22.59;52.50;100968.72;5143105;27;20058;-63
2023/07/12 05:36:50;;;;;;;5.35;1.75;;;;;;;22.52;52.79;100977.34;5143876;27;20039;-60
2023/07/12 05:39:27;;;;;;;4.16;1.57;;;;;;;22.56;52.88;100967.41;4730743;27;10002676;-61
2023/07/12 05:41:55;;;;;;;4.88;1.88;;;;;;;22.65;53.06;100973.00;5144638;27;20055;-60
2023/07/12 05:44:23;;;;;;;4.20;1.80;;;;;;;22.56;52.71;100972.06;5147164;27;20051;-61
2023/07/12 05:46:50;;;;;;;4.38;1.50;;;;;;;22.50;52.71;100973.28;5147947;27;20047;-60
2023/07/12 05:49:18;;;;;;;4.68;1.92;;;;;;;22.48;52.90;100983.72;5142376;27;20055;-59
2023/07/12 05:51:47;;;;;;;5.03;1.88;;;;;;;22.60;52.70;100975.84;5143767;27;20050;-59
2023/07/12 05:54:14;;;;;;;5.80;2.35;;;;;;;22.57;52.56;100977.25;5143713;27;20068;-59
2023/07/12 05:56:44;;;;;;;4.43;1.33;;;;;;;22.64;52.56;100974.13;5138518;27;20095;-59
2023/07/12 05:59:11;;;;;;;4.60;1.92;;;;;;;22.80;53.20;100986.50;5141715;27;20068;-60
2023/07/12 06:01:39;;;;;;;3.78;1.45;;;;;;;22.69;52.63;100985.00;5142917;27;20047;-59
2023/07/12 06:04:08;;;;;;;4.22;1.73;;;;;;;22.73;52.69;100980.53;5144658;27;20408;-59
2023/07/12 06:06:36;;;;;;;4.50;1.50;;;;;;;22.65;52.78;100971.09;5141034;27;20518;-57
2023/07/12 06:09:04;;;;;;;10.93;1.90;;;;;;;22.79;52.29;100962.09;5140623;27;20043;-59
2023/07/12 06:11:31;;;;;;;4.68;1.75;;;;;;;22.64;52.78;100972.19;5143767;27;20108;-59
2023/07/12 06:14:01;;;;;;;6.47;1.88;;;;;;;22.65;53.18;100975.75;5139370;27;20050;-58
2023/07/12 06:16:28;;;;;;;10.85;2.60;;;;;;;22.66;52.78;100974.63;5150497;27;20050;-59
2023/07/12 06:18:56;;;;;;;7.30;1.88;;;;;;;22.77;52.86;100969.81;5136325;27;20353;-59
2023/07/12 06:21:24;;;;;;;8.88;2.40;;;;;;;22.83;52.82;100974.13;5135162;27;20100;-59
2023/07/12 06:23:57;;;;;;;11.88;2.50;;;;;;;22.78;52.81;100991.41;5143122;27;20422;-60
2023/07/12 06:26:24;;;;;;;4.45;1.50;;;;;;;22.82;52.86;100992.47;5137989;27;20065;-60
2023/07/12 06:28:53;;;;;;;6.00;1.73;;;;;;;22.83;52.23;100993.28;5140783;27;20047;-59
2023/07/12 06:31:22;;;;;;;4.78;1.80;;;;;;;22.96;51.83;100985.09;5140428;27;20079;-60
2023/07/12 06:33:50;;;;;;;5.97;1.65;;;;;;;22.80;52.25;100997.44;5140695;27;20664;-60
2023/07/12 06:36:17;;;;;;;7.10;2.25;;;;;;;22.93;52.01;101004.91;5136087;27;20333;-59
2023/07/12 06:38:46;;;;;;;4.07;1.40;;;;;;;22.87;52.28;101013.50;5142610;27;20095;-60
2023/07/12 06:41:14;;;;;;;7.00;1.60;;;;;;;22.75;52.21;101019.44;5143173;27;20047;-59
2023/07/12 06:43:41;;;;;;;6.97;2.00;;;;;;;22.72;52.27;101023.56;5141696;27;20370;-59
2023/07/12 06:46:11;;;;;;;4.68;1.45;;;;;;;22.70;52.30;101024.97;5139597;27;20039;-59
2023/07/12 06:48:40;;;;;;;6.93;2.20;;;;;;;22.94;52.22;101022.97;5142328;27;20039;-60
2023/07/12 06:51:08;;;;;;;6.38;1.80;;;;;;;22.89;51.95;101022.25;5140942;27;20043;-59
2023/07/12 06:53:36;;;;;;;4.00;1.60;;;;;;;22.73;51.75;101044.38;5142509;27;20043;-59
2023/07/12 06:56:04;;;;;;;6.35;1.80;;;;;;;22.83;51.91;101040.69;5143243;27;20043;-59
2023/07/12 06:58:32;;;;;;;7.72;1.88;;;;;;;22.80;51.78;101046.78;5145249;27;20051;-59
2023/07/12 07:00:59;;;;;;;6.20;2.55;;;;;;;22.86;51.43;101053.81;5144020;27;20389;-60
2023/07/12 07:03:27;;;;;;;5.43;1.48;;;;;;;22.83;51.53;101054.41;5148531;27;20314;-59
2023/07/12 07:05:56;;;;;;;5.50;1.65;;;;;;;22.73;51.70;101057.28;5137814;27;20043;-60
2023/07/12 07:08:27;;;;;;;4.72;1.80;;;;;;;22.65;52.16;101058.75;5139910;27;20039;-59
2023/07/12 07:10:56;;;;;;;5.47;1.70;;;;;;;22.74;51.47;101054.22;5139692;27;20054;-59
2023/07/12 07:13:25;;;;;;;5.82;1.95;;;;;;;22.64;52.22;101048.91;5142886;28;20130;-59
2023/07/12 07:15:53;;;;;;;4.03;1.45;;;;;;;22.64;51.98;101048.91;5139606;27;20043;-59
2023/07/12 07:18:21;;;;;;;5.10;2.13;;;;;;;22.56;51.80;101051.50;5139695;27;20557;-59
2023/07/12 07:20:49;;;;;;;6.93;2.22;;;;;;;22.65;52.03;101057.94;5140030;27;20054;-59
2023/07/12 07:23:18;;;;;;;4.55;1.55;;;;;;;22.70;51.87;101053.19;5133626;28;20043;-59
2023/07/12 07:25:46;;;;;;;5.40;1.90;;;;;;;22.80;51.89;101051.44;5140294;27;20039;-60
2023/07/12 07:28:14;;;;;;;4.70;1.65;;;;;;;22.98;51.37;101067.84;5142426;27;20085;-60
2023/07/12 07:30:42;;;;;;;4.85;1.50;;;;;;;22.87;51.50;101065.56;5137538;27;20039;-59
2023/07/12 07:33:10;;;;;;;5.03;1.60;;;;;;;22.84;51.35;101064.25;5141006;28;20541;-60
2023/07/12 07:35:38;;;;;;;3.45;1.42;;;;;;;22.81;51.83;101077.72;5139929;27;20082;-60
2023/07/12 07:38:06;;;;;;;3.35;1.35;;;;;;;22.71;51.76;101068.53;5140298;28;20047;-60
2023/07/12 07:40:39;;;;;;;5.68;2.03;;;;;;;22.86;51.99;101075.72;5139691;28;20092;-60
2023/07/12 07:43:07;;;;;;;6.13;1.75;;;;;;;22.89;51.86;101082.53;5141987;27;20096;-62
2023/07/12 07:45:35;;;;;;;5.35;1.63;;;;;;;22.88;51.38;101089.13;5134198;27;20043;-60
2023/07/12 07:48:03;;;;;;;7.85;2.20;;;;;;;22.79;51.75;101074.44;5140052;27;20115;-60
2023/07/12 07:50:31;;;;;;;7.55;2.22;;;;;;;22.72;51.89;101083.03;5142279;27;20104;-60
2023/07/12 07:53:01;;;;;;;6.60;1.95;;;;;;;22.75;51.56;101104.38;5142163;27;20449;-60
2023/07/12 07:55:29;;;;;;;5.95;2.40;;;;;;;22.83;51.69;101091.97;5144694;27;20047;-60
2023/07/12 07:57:58;;;;;;;6.57;1.73;;;;;;;22.99;51.32;101098.81;5141251;27;20043;-60
2023/07/12 08:00:26;;;;;;;7.32;1.90;;;;;;;22.88;51.62;101094.63;5142644;27;20108;-60
2023/07/12 08:02:54;;;;;;;6.75;1.90;;;;;;;22.71;51.63;101103.34;5145896;27;20115;-60
2023/07/12 08:05:21;;;;;;;3.70;1.90;;;;;;;22.66;51.84;101097.94;5144646;27;20047;-60
2023/07/12 08:07:50;;;;;;;5.75;1.90;;;;;;;22.83;51.67;101102.91;5147153;27;20077;-60
2023/07/12 08:10:19;;;;;;;5.97;1.30;;;;;;;22.68;51.53;101110.22;5143723;27;20079;-60
2023/07/12 08:12:48;;;;;;;4.45;1.52;;;;;;;22.60;51.65;101104.59;5146271;27;20511;-60
2023/07/12 08:15:18;;;;;;;3.78;1.85;;;;;;;22.55;51.68;101101.94;5143154;27;20476;-60
2023/07/12 08:17:46;;;;;;;6.72;1.75;;;;;;;22.52;51.68;101108.84;5146595;27;20068;-60
2023/07/12 08:20:14;;;;;;;8.65;2.05;;;;;;;22.64;51.50;101119.34;5138234;27;20059;-60
2023/07/12 08:22:42;;;;;;;5.53;1.77;;;;;;;22.64;51.39;101114.66;5143762;27;20519;-59
2023/07/12 08:25:10;;;;;;;6.20;1.73;;;;;;;22.72;51.29;101118.66;5140810;27;20044;-59
2023/07/12 08:27:38;;;;;;;6.22;1.98;;;;;;;22.63;51.34;101121.25;5141085;27;20054;-59
2023/07/12 08:30:08;;;;;;;4.38;1.65;;;;;;;22.76;51.16;101116.97;5142873;27;20051;-59
2023/07/12 08:32:37;;;;;;;4.68;1.70;;;;;;;22.62;51.37;101113.34;5145519;27;20058;-60
2023/07/12 08:35:06;;;;;;;7.38;2.20;;;;;;;22.64;51.45;101122.06;5143563;27;20653;-60
2023/07/12 08:37:34;;;;;;;6.55;2.15;;;;;;;22.71;51.25;101120.59;5144533;27;20455;-59
2023/07/12 08:40:02;;;;;;;4.57;1.92;;;;;;;22.89;50.85;101123.66;5142402;27;20035;-60
2023/07/12 08:42:38;;;;;;;6.80;2.00;;;;;;;22.71;51.08;101126.06;5145528;27;20054;-59
2023/07/12 08:45:20;;;;;;;3.85;1.70;;;;;;;22.90;51.09;101126.09;5140551;27;20050;-61
2023/07/12 08:47:51;;;;;;;9.68;1.60;;;;;;;22.88;50.81;101122.84;5139334;27;20046;-60
2023/07/12 08:50:19;;;;;;;6.13;1.60;;;;;;;22.70;50.93;101134.59;5141997;27;20050;-60
2023/07/12 08:52:47;;;;;;;7.47;2.30;;;;;;;22.70;50.91;101129.91;5141545;27;20043;-60
2023/07/12 08:55:18;;;;;;;5.95;1.70;;;;;;;22.62;51.08;101129.78;5145930;27;20051;-61
2023/07/12 08:57:51;;;;;;;6.03;2.00;;;;;;;22.51;51.46;101131.88;5154757;27;20069;-61
2023/07/12 09:00:21;;;;;;;5.65;1.90;;;;;;;22.54;51.36;101133.16;5142353;27;20092;-61
2023/07/12 09:02:51;;;;;;;6.85;1.98;;;;;;;22.56;51.44;101128.22;5143270;27;20054;-61
2023/07/12 09:05:24;;;;;;;7.90;1.92;;;;;;;22.54;51.44;101128.50;5143381;27;20052;-61
2023/07/12 09:07:56;;;;;;;6.90;2.20;;;;;;;22.54;51.44;101133.97;5144060;27;20153;-60
2023/07/12 09:10:29;;;;;;;8.27;2.00;;;;;;;22.48;51.42;101128.91;5142939;27;20076;-61
2023/07/12 09:13:00;;;;;;;6.40;2.35;;;;;;;22.71;51.42;101131.56;5141165;27;20039;-61
2023/07/12 09:15:34;;;;;;;6.50;2.33;;;;;;;22.60;51.31;101141.03;5140569;27;20408;-61
2023/07/12 09:18:07;;;;;;;7.80;2.33;;;;;;;22.58;51.50;101123.25;5145421;27;20039;-61
2023/07/12 09:20:39;;;;;;;5.22;1.75;;;;;;;22.76;51.13;101127.09;5139400;27;20035;-60
2023/07/12 09:23:12;;;;;;;6.15;1.75;;;;;;;22.85;50.69;101130.84;5145969;27;20050;-61
2023/07/12 09:25:41;;;;;;;7.80;2.70;;;;;;;22.72;51.35;101124.16;5139337;27;20043;-62
2023/07/12 09:28:12;;;;;;;5.93;2.13;;;;;;;22.70;51.10;101127.19;5145023;27;20047;-62
2023/07/12 09:30:41;;;;;;;5.88;1.90;;;;;;;22.66;51.08;101128.06;5143798;27;20053;-62
2023/07/12 09:33:18;;;;;;;5.18;1.70;;;;;;;22.69;51.01;101122.81;5140026;27;20043;-61
2023/07/12 09:35:46;;;;;;;4.18;1.73;;;;;;;22.68;50.94;101123.09;5143719;27;20088;-61
2023/07/12 09:38:17;;;;;;;4.63;1.38;;;;;;;22.59;51.02;101131.19;5141499;27;20120;-61
2023/07/12 09:40:48;;;;;;;5.18;1.90;;;;;;;22.62;51.07;101119.63;5142766;27;20043;-60
2023/07/12 09:43:18;;;;;;;6.07;1.88;;;;;;;22.62;51.05;101119.63;5144899;27;20518;-61
2023/07/12 09:45:57;;;;;;;5.28;1.95;;;;;;;22.55;51.18;101118.38;5145441;27;20039;-60
2023/07/12 09:48:46;;;;;;;8.77;2.30;;;;;;;22.58;50.91;101109.56;5138799;27;20165;-60
2023/07/12 09:51:28;;;;;;;7.50;2.70;;;;;;;22.54;51.17;101120.28;5150002;27;20096;-59
2023/07/12 09:54:00;;;;;;;6.68;2.10;;;;;;;22.54;50.91;101112.06;5147015;27;20080;-60
2023/07/12 09:56:37;;;;;;;7.30;1.92;;;;;;;22.55;51.22;101110.97;5135661;27;20048;-59
2023/07/12 09:59:12;;;;;;;6.28;2.25;;;;;;;22.53;51.07;101106.91;5164637;27;20058;-60
2023/07/12 10:01:46;;;;;;;4.43;1.73;;;;;;;22.50;51.06;101105.59;5151840;27;20079;-60
2023/07/12 10:04:33;;;;;;;5.25;1.55;;;;;;;22.65;51.18;101105.34;5129934;27;20079;-60
2023/07/12 10:07:08;;;;;;;4.47;1.80;;;;;;;22.88;50.45;101098.16;5139442;27;20464;-60
2023/07/12 10:09:39;;;;;;;4.70;1.40;;;;;;;22.82;50.37;101093.06;5146789;27;20050;-60
2023/07/12 10:12:12;;;;;;;6.57;2.10;;;;;;;22.81;50.61;101100.47;5140930;27;20039;-59
2023/07/12 10:14:42;;;;;;;9.20;1.95;;;;;;;22.70;50.64;101098.97;5139763;27;20051;-60
2023/07/12 10:17:18;;;;;;;5.97;1.60;;;;;;;22.73;50.85;101110.16;5137193;27;20042;-61
2023/07/12 10:19:53;;;;;;;4.45;1.88;;;;;;;22.83;50.48;101105.66;5146247;27;20047;-61
2023/07/12 10:22:28;;;;;;;5.15;1.90;;;;;;;22.73;50.63;101104.66;5139904;27;20457;-60
2023/07/12 10:24:59;;;;;;;5.90;1.60;;;;;;;22.66;50.53;101109.69;5143245;27;20039;-60
2023/07/12 10:27:38;;;;;;;6.47;2.13;;;;;;;22.62;50.48;101114.16;5158074;27;20051;-60
2023/07/12 10:30:12;;;;;;;5.13;2.10;;;;;;;22.67;50.93;101111.34;5161987;27;20068;-59
2023/07/12 10:32:45;;;;;;;4.97;1.70;;;;;;;22.64;50.55;101114.66;5159094;27;20043;-59
2023/07/12 10:35:19;;;;;;;7.30;1.70;;;;;;;22.65;50.69;101110.81;5135341;27;20086;-58
2023/07/12 10:37:54;;;;;;;6.15;1.73;;;;;;;22.64;50.43;101117.41;5160463;27;20471;-59
2023/07/12 10:40:26;;;;;;;4.45;2.28;;;;;;;22.65;50.16;101110.00;5157934;27;20109;-59
2023/07/12 10:42:57;;;;;;;6.70;1.80;;;;;;;22.62;50.49;101110.59;5146151;27;20556;-59
2023/07/12 10:45:27;;;;;;;6.10;1.80;;;;;;;22.71;50.50;101108.81;5138057;27;20043;-60
2023/07/12 10:47:58;;;;;;;9.13;1.98;;;;;;;22.73;50.41;101115.63;5135432;27;20048;-59
2023/07/12 10:50:44;;;;;;;5.78;1.70;;;;;;;22.73;50.61;101112.88;5137835;27;20126;-59
2023/07/12 10:53:20;;;;;;;9.02;2.40;;;;;;;22.74;50.70;101120.00;5133802;27;20058;-59
2023/07/12 10:56:13;;;;;;;6.13;1.67;;;;;;;22.71;50.74;101126.06;5145659;27;20047;-59
2023/07/12 10:58:55;;;;;;;7.90;1.90;;;;;;;22.81;50.60;101124.31;5133447;27;20052;-59
2023/07/12 11:01:52;;;;;;;6.15;2.00;;;;;;;22.85;50.95;101130.84;5136487;27;20043;-59
2023/07/12 11:04:45;;;;;;;7.82;1.70;;;;;;;22.82;50.71;101131.44;5145529;27;20077;-59
2023/07/12 11:07:36;;;;;;;7.30;2.03;;;;;;;22.86;50.94;101127.81;5131873;27;20051;-59
2023/07/12 11:10:23;;;;;;;7.20;1.52;;;;;;;22.80;50.76;101111.72;5145093;27;21382;-59
2023/07/12 11:12:56;;;;;;;4.43;1.70;;;;;;;22.89;50.85;101121.72;5135648;27;20039;-59
2023/07/12 11:15:26;;;;;;;7.13;2.20;;;;;;;22.87;50.69;101132.19;5137950;28;20043;-59
2023/07/12 11:18:04;;;;;;;6.38;1.60;;;;;;;22.93;50.44;101127.44;5141437;28;20135;-58
2023/07/12 11:20:54;;;;;;;4.68;1.85;;;;;;;22.91;50.16;101104.97;5154160;27;20039;-59
2023/07/12 11:23:29;;;;;;;5.38;1.50;;;;;;;22.89;49.76;101118.16;5144085;27;20055;-59
2023/07/12 11:26:03;;;;;;;5.00;1.55;;;;;;;22.89;49.98;101101.72;5145811;27;20050;-59
2023/07/12 11:28:43;;;;;;;5.97;1.58;;;;;;;22.95;49.81;101111.50;5150301;27;20051;-58
2023/07/12 11:31:32;;;;;;;7.63;2.00;;;;;;;22.94;49.87;101120.84;5134722;27;20061;-59
2023/07/12 11:34:11;;;;;;;6.63;1.60;;;;;;;23.04;49.78;101110.53;5150642;27;20053;-59
2023/07/12 11:36:39;;;;;;;3.97;1.55;;;;;;;23.14;49.94;101112.28;5143407;27;20571;-59
2023/07/12 11:39:15;;;;;;;5.93;1.80;;;;;;;23.13;49.45;101112.59;5160002;27;20051;-59